Aurora, Oregon
Current Conditions -  °F | °C
As of 7:53 PM on Monday 20 Oct 2014 (Local Time) from KUAO Reporting Station
Scattered Clouds Scattered Clouds  
Wind Chill: 13°   Ceiling: Unl
Heat Index: 13°   Visibility: 10mi
Dew Point: 11°   Wind: 8mph
Humidity: 87%   Direction: 190°S
Pressure: 29.84"   Gusts: NA
Location:  45.23°N, 122.76°W
Report Text: KUAO 210253Z AUTO 19007KT 10SM FEW050 SCT080 13/11 A2984 RMK AO2 SLP103 60001 T01330111 53009
Loading
Personal Weather Stations






























Interactive Weather Map
Tropical Storm Tracking
New forecast layout! Learn more

10-Day Weather Forecast

Advertisements
Track Severe Weather on mobile